createdAt,value
2023-04-07T00:00:06.151Z,2.56
2023-04-07T00:03:14.206Z,2.63
2023-04-07T00:06:16.733Z,2.51
2023-04-07T00:09:19.066Z,2.73
2023-04-07T00:12:21.772Z,2.70
2023-04-07T00:15:24.700Z,2.66
2023-04-07T00:18:27.391Z,2.75
2023-04-07T00:21:29.780Z,2.57
2023-04-07T00:24:34.717Z,2.69
2023-04-07T00:27:37.380Z,2.63
2023-04-07T00:30:39.722Z,2.82
2023-04-07T00:33:42.112Z,2.73
2023-04-07T00:36:44.488Z,2.57
2023-04-07T00:39:47.098Z,2.75
2023-04-07T00:42:49.507Z,2.91
2023-04-07T00:45:52.852Z,2.62
2023-04-07T00:48:55.264Z,2.92
2023-04-07T00:51:58.582Z,2.72
2023-04-07T00:55:01.399Z,2.79
2023-04-07T00:58:05.894Z,2.75
2023-04-07T01:01:19.220Z,2.89
2023-04-07T01:04:33.511Z,2.75
2023-04-07T01:07:57.836Z,2.76
2023-04-07T01:11:17.551Z,2.86
2023-04-07T01:14:20.421Z,2.74
2023-04-07T01:17:33.579Z,2.72
2023-04-07T01:20:36.922Z,2.89
2023-04-07T01:23:53.211Z,2.81
2023-04-07T01:27:00.064Z,2.74
2023-04-07T01:30:04.691Z,2.80
2023-04-07T01:33:07.899Z,2.72
2023-04-07T01:36:10.566Z,2.84
2023-04-07T01:39:14.062Z,2.90
2023-04-07T01:42:16.734Z,2.72
2023-04-07T01:45:19.445Z,2.88
2023-04-07T01:48:22.040Z,2.88
2023-04-07T01:51:24.762Z,3.00
2023-04-07T01:54:27.592Z,2.99
2023-04-07T01:57:30.138Z,2.91
2023-04-07T02:00:38.072Z,2.90
2023-04-07T02:04:13.731Z,2.89
2023-04-07T02:07:21.779Z,2.89
2023-04-07T02:10:28.280Z,2.95
2023-04-07T02:13:34.980Z,2.84
2023-04-07T02:16:38.021Z,2.90
2023-04-07T02:19:40.474Z,2.98
2023-04-07T02:22:44.811Z,2.92
2023-04-07T02:25:47.546Z,2.97
2023-04-07T02:28:49.911Z,2.84
2023-04-07T02:31:53.120Z,2.97
2023-04-07T02:34:55.713Z,3.01
2023-04-07T02:37:57.985Z,2.95
2023-04-07T02:41:00.454Z,2.79
2023-04-07T02:44:05.428Z,2.91
2023-04-07T02:47:07.842Z,3.02
2023-04-07T02:50:10.685Z,2.93
2023-04-07T02:53:13.060Z,2.90
2023-04-07T02:56:17.194Z,2.83
2023-04-07T02:59:19.481Z,2.95
2023-04-07T03:02:22.010Z,3.04
2023-04-07T03:05:24.421Z,3.01
2023-04-07T03:08:27.633Z,2.94
2023-04-07T03:11:30.952Z,3.08
2023-04-07T03:14:35.445Z,3.07
2023-04-07T03:17:37.974Z,3.10
2023-04-07T03:20:42.164Z,3.09
2023-04-07T03:23:46.813Z,3.01
2023-04-07T03:26:49.402Z,3.12
2023-04-07T03:29:58.229Z,3.08
2023-04-07T03:33:02.614Z,3.25
2023-04-07T03:36:06.706Z,3.23
2023-04-07T03:39:09.576Z,3.13
2023-04-07T03:42:11.904Z,3.22
2023-04-07T03:45:14.575Z,3.22
2023-04-07T03:48:21.897Z,3.21
2023-04-07T03:51:34.370Z,3.18
2023-04-07T03:54:39.265Z,3.31
2023-04-07T03:57:42.212Z,3.14
2023-04-07T04:00:45.287Z,3.19
2023-04-07T04:03:48.395Z,3.26
2023-04-07T04:06:58.928Z,3.33
2023-04-07T04:10:16.293Z,3.47
2023-04-07T04:13:23.315Z,3.49
2023-04-07T04:16:26.614Z,3.57
2023-04-07T04:19:32.449Z,3.46
2023-04-07T04:22:39.944Z,3.49
2023-04-07T04:25:42.704Z,3.49
2023-04-07T04:28:47.453Z,3.53
2023-04-07T04:31:51.786Z,3.47
2023-04-07T04:34:55.466Z,3.41
2023-04-07T04:37:58.591Z,3.64
2023-04-07T04:41:02.372Z,3.54
2023-04-07T04:44:07.161Z,3.49
2023-04-07T04:47:10.638Z,3.64
2023-04-07T04:50:15.439Z,3.55
2023-04-07T04:53:20.160Z,3.55
2023-04-07T04:56:33.060Z,3.72
2023-04-07T04:59:35.704Z,3.72
2023-04-07T05:02:39.788Z,3.80
2023-04-07T05:05:44.144Z,3.79
2023-04-07T05:08:46.852Z,3.81
2023-04-07T05:11:50.974Z,3.85
2023-04-07T05:14:53.587Z,3.83
2023-04-07T05:17:56.451Z,3.73
2023-04-07T05:21:02.520Z,3.91
2023-04-07T05:24:08.743Z,3.83
2023-04-07T05:27:11.844Z,3.93
2023-04-07T05:30:15.654Z,3.98
2023-04-07T05:33:18.201Z,4.06
2023-04-07T05:36:25.198Z,3.99
2023-04-07T05:39:31.453Z,4.04
2023-04-07T05:42:34.477Z,4.15
2023-04-07T05:45:38.513Z,3.95
2023-04-07T05:48:42.158Z,4.20
2023-04-07T05:51:46.680Z,4.11
2023-04-07T05:54:50.330Z,4.15
2023-04-07T05:57:53.764Z,4.14
2023-04-07T06:00:58.339Z,4.13
2023-04-07T06:04:01.745Z,4.16
2023-04-07T06:07:05.033Z,4.17
2023-04-07T06:10:08.267Z,4.21
2023-04-07T06:13:11.242Z,4.15
2023-04-07T06:16:14.069Z,4.22
2023-04-07T06:19:16.707Z,4.20
2023-04-07T06:22:19.551Z,4.19
2023-04-07T06:25:22.323Z,4.21
2023-04-07T06:28:24.889Z,4.25
2023-04-07T06:31:27.609Z,4.29
2023-04-07T06:34:30.422Z,4.19
2023-04-07T06:37:32.854Z,4.34
2023-04-07T06:40:35.453Z,4.39
2023-04-07T06:43:38.247Z,4.19
2023-04-07T06:46:44.651Z,4.33
2023-04-07T06:49:47.092Z,4.27
2023-04-07T06:52:50.262Z,4.25
2023-04-07T06:55:52.883Z,4.12
2023-04-07T06:58:55.719Z,4.44
2023-04-07T07:01:58.393Z,4.47
2023-04-07T07:05:01.784Z,4.46
2023-04-07T07:08:04.296Z,4.57
2023-04-07T07:11:06.853Z,4.55
2023-04-07T07:14:09.229Z,4.59
2023-04-07T07:17:11.653Z,4.60
2023-04-07T07:20:14.115Z,4.57
2023-04-07T07:23:16.685Z,4.62
2023-04-07T07:26:19.123Z,4.71
2023-04-07T07:29:21.625Z,4.70
2023-04-07T07:32:24.172Z,4.73
2023-04-07T07:35:26.646Z,4.83
2023-04-07T07:38:29.064Z,4.63
2023-04-07T07:41:31.720Z,4.77
2023-04-07T07:44:34.115Z,4.85
2023-04-07T07:47:37.994Z,4.86
2023-04-07T07:50:40.815Z,4.91
2023-04-07T07:53:43.321Z,4.76
2023-04-07T07:56:45.983Z,4.93
2023-04-07T07:59:48.357Z,4.82
2023-04-07T08:02:50.797Z,4.80
2023-04-07T08:05:53.385Z,5.01
2023-04-07T08:08:56.133Z,5.13
2023-04-07T08:11:58.650Z,5.27
2023-04-07T08:15:01.450Z,5.26
2023-04-07T08:18:06.512Z,5.32
2023-04-07T08:21:09.267Z,5.35
2023-04-07T08:24:11.793Z,5.33
2023-04-07T08:27:14.529Z,5.31
2023-04-07T08:30:17.037Z,5.35
2023-04-07T08:33:19.481Z,5.34
2023-04-07T08:36:22.632Z,5.35
2023-04-07T08:39:25.674Z,5.48
2023-04-07T08:42:30.077Z,5.42
2023-04-07T08:45:32.946Z,5.49
2023-04-07T08:48:35.670Z,5.61
2023-04-07T08:51:39.882Z,5.77
2023-04-07T08:54:44.177Z,5.92
2023-04-07T08:57:47.122Z,5.90
2023-04-07T09:00:50.301Z,6.15
2023-04-07T09:03:53.519Z,6.15
2023-04-07T09:06:56.137Z,6.55
2023-04-07T09:09:58.630Z,6.82
2023-04-07T09:13:01.275Z,6.70
2023-04-07T09:16:03.873Z,6.63
2023-04-07T09:19:07.370Z,6.65
2023-04-07T09:22:12.668Z,6.58
2023-04-07T09:25:29.953Z,6.43
2023-04-07T09:28:42.723Z,6.06
2023-04-07T09:31:47.157Z,6.09
2023-04-07T09:35:00.287Z,5.24
2023-04-07T09:38:07.154Z,5.97
2023-04-07T09:41:17.147Z,6.12
2023-04-07T09:44:23.909Z,5.98
2023-04-07T09:47:29.385Z,6.02
2023-04-07T09:50:41.461Z,6.07
2023-04-07T09:53:49.440Z,6.06
2023-04-07T09:56:52.248Z,6.00
2023-04-07T09:59:55.728Z,6.18
2023-04-07T10:02:59.145Z,6.25
2023-04-07T10:06:02.374Z,6.42
2023-04-07T10:09:04.980Z,6.67
2023-04-07T10:12:07.548Z,6.72
2023-04-07T10:15:15.856Z,6.70
2023-04-07T10:18:18.693Z,6.71
2023-04-07T10:21:21.279Z,7.09
2023-04-07T10:24:47.317Z,7.30
2023-04-07T10:27:53.736Z,7.03
2023-04-07T10:30:56.642Z,7.11
2023-04-07T10:33:59.218Z,7.10
2023-04-07T10:37:18.072Z,7.18
2023-04-07T10:40:21.729Z,7.10
2023-04-07T10:43:42.169Z,6.79
2023-04-07T10:46:48.473Z,7.16
2023-04-07T10:50:16.712Z,7.01
2023-04-07T10:53:19.188Z,7.31
2023-04-07T10:56:21.812Z,7.52
2023-04-07T10:59:28.059Z,7.35
2023-04-07T11:02:31.235Z,7.63
2023-04-07T11:05:33.828Z,7.69
2023-04-07T11:08:38.393Z,7.63
2023-04-07T11:11:42.581Z,7.65
2023-04-07T11:14:44.933Z,7.57
2023-04-07T11:17:47.454Z,7.71
2023-04-07T11:20:54.378Z,7.81
2023-04-07T11:23:56.847Z,7.79
2023-04-07T11:26:59.257Z,7.92
2023-04-07T11:30:02.170Z,8.06
2023-04-07T11:33:05.308Z,8.21
2023-04-07T11:36:08.182Z,8.20
2023-04-07T11:39:23.145Z,8.13
2023-04-07T11:42:36.313Z,8.35
2023-04-07T11:45:38.939Z,8.33
2023-04-07T11:48:42.891Z,8.46
2023-04-07T11:51:46.254Z,8.56
2023-04-07T11:54:52.119Z,8.38
2023-04-07T11:57:54.443Z,8.46
2023-04-07T12:00:58.777Z,8.54
2023-04-07T12:04:03.495Z,8.73
2023-04-07T12:07:10.622Z,8.68
2023-04-07T12:10:20.519Z,8.55
2023-04-07T12:13:23.314Z,8.49
2023-04-07T12:16:26.342Z,8.48
2023-04-07T12:19:29.578Z,8.46
2023-04-07T12:22:31.975Z,8.73
2023-04-07T12:25:34.489Z,8.70
2023-04-07T12:28:38.024Z,8.73
2023-04-07T12:31:40.720Z,8.76
2023-04-07T12:34:44.081Z,8.55
2023-04-07T12:37:49.524Z,8.58
2023-04-07T12:40:53.175Z,8.63
2023-04-07T12:43:55.770Z,8.58
2023-04-07T12:46:58.283Z,8.49
2023-04-07T12:50:01.410Z,8.51
2023-04-07T12:53:05.592Z,8.58
2023-04-07T12:56:08.171Z,8.77
2023-04-07T12:59:10.570Z,8.87
2023-04-07T13:02:14.069Z,8.82
2023-04-07T13:05:16.840Z,9.09
2023-04-07T13:08:19.328Z,9.08
2023-04-07T13:11:22.071Z,9.02
2023-04-07T13:14:24.553Z,8.87
2023-04-07T13:17:27.185Z,8.62
2023-04-07T13:20:30.592Z,8.71
2023-04-07T13:23:42.049Z,8.67
2023-04-07T13:26:56.158Z,8.81
2023-04-07T13:29:58.612Z,9.16
2023-04-07T13:33:01.227Z,9.46
2023-04-07T13:36:03.878Z,9.59
2023-04-07T13:39:06.513Z,9.56
2023-04-07T13:42:12.521Z,9.65
2023-04-07T13:45:15.145Z,10.01
2023-04-07T13:48:17.488Z,10.23
2023-04-07T13:51:20.053Z,10.34
2023-04-07T13:54:22.781Z,10.49
2023-04-07T13:57:25.272Z,10.64
2023-04-07T14:00:27.754Z,10.57
2023-04-07T14:03:30.628Z,10.82
2023-04-07T14:06:33.258Z,10.87
2023-04-07T14:09:35.757Z,10.45
2023-04-07T14:12:38.351Z,10.74
2023-04-07T14:15:40.803Z,10.63
2023-04-07T14:18:43.381Z,10.71
2023-04-07T14:21:46.265Z,10.92
2023-04-07T14:24:48.761Z,10.55
2023-04-07T14:27:53.943Z,10.81
2023-04-07T14:30:56.382Z,10.84
2023-04-07T14:33:58.733Z,11.12
2023-04-07T14:37:01.577Z,11.24
2023-04-07T14:40:05.298Z,11.17
2023-04-07T14:43:08.177Z,11.20
2023-04-07T14:46:12.331Z,11.47
2023-04-07T14:49:15.755Z,11.58
2023-04-07T14:52:18.298Z,11.65
2023-04-07T14:55:21.126Z,11.54
2023-04-07T14:58:23.674Z,11.16
2023-04-07T15:01:26.223Z,11.00
2023-04-07T15:04:28.838Z,11.09
2023-04-07T15:07:31.379Z,10.76
2023-04-07T15:10:35.657Z,10.78
2023-04-07T15:13:37.998Z,10.51
2023-04-07T15:16:40.552Z,10.55
2023-04-07T15:19:44.342Z,10.43
2023-04-07T15:22:46.839Z,10.27
2023-04-07T15:25:51.552Z,10.34
2023-04-07T15:28:53.857Z,10.25
2023-04-07T15:31:56.540Z,10.29
2023-04-07T15:34:59.251Z,10.38
2023-04-07T15:38:01.927Z,10.30
2023-04-07T15:41:05.185Z,10.19
2023-04-07T15:44:10.957Z,10.10
2023-04-07T15:47:14.458Z,10.02
2023-04-07T15:50:16.929Z,10.21
2023-04-07T15:53:19.425Z,10.24
2023-04-07T15:56:24.828Z,9.84
2023-04-07T15:59:30.775Z,9.59
2023-04-07T16:02:33.484Z,9.35
2023-04-07T16:05:36.116Z,8.56
2023-04-07T16:08:38.516Z,8.32
2023-04-07T16:11:40.999Z,8.16
2023-04-07T16:14:43.440Z,8.11
2023-04-07T16:17:49.619Z,8.19
2023-04-07T16:20:52.552Z,8.06
2023-04-07T16:23:55.013Z,8.06
2023-04-07T16:26:57.420Z,7.86
2023-04-07T16:29:59.763Z,7.96
2023-04-07T16:33:02.232Z,8.00
2023-04-07T16:36:05.731Z,7.89
2023-04-07T16:39:08.823Z,8.01
2023-04-07T16:42:12.952Z,7.85
2023-04-07T16:45:19.093Z,7.73
2023-04-07T16:48:25.065Z,7.75
2023-04-07T16:51:29.688Z,7.80
2023-04-07T16:54:32.638Z,7.79
2023-04-07T16:57:36.043Z,7.72
2023-04-07T17:00:41.491Z,7.61
2023-04-07T17:03:52.095Z,7.56
2023-04-07T17:06:55.429Z,7.81
2023-04-07T17:09:58.483Z,7.63
2023-04-07T17:13:01.558Z,7.52
2023-04-07T17:16:05.159Z,7.46
2023-04-07T17:19:08.182Z,7.39
2023-04-07T17:22:11.889Z,7.21
2023-04-07T17:25:17.807Z,7.35
2023-04-07T17:28:21.660Z,7.24
2023-04-07T17:31:24.469Z,7.08
2023-04-07T17:34:26.909Z,6.98
2023-04-07T17:37:29.680Z,7.02
2023-04-07T17:40:33.398Z,7.03
2023-04-07T17:43:37.399Z,7.17
2023-04-07T17:46:42.231Z,7.30
2023-04-07T17:49:44.964Z,7.28
2023-04-07T17:52:47.393Z,7.14
2023-04-07T17:55:50.121Z,7.11
2023-04-07T17:58:52.786Z,7.06
2023-04-07T18:01:55.317Z,7.29
2023-04-07T18:05:01.112Z,7.19
2023-04-07T18:08:03.576Z,7.30
2023-04-07T18:11:07.146Z,7.19
2023-04-07T18:14:09.662Z,7.29
2023-04-07T18:17:12.091Z,7.17
2023-04-07T18:20:16.108Z,7.00
2023-04-07T18:23:18.800Z,7.06
2023-04-07T18:26:21.869Z,7.20
2023-04-07T18:29:24.400Z,6.97
2023-04-07T18:32:26.862Z,7.23
2023-04-07T18:35:29.579Z,7.21
2023-04-07T18:38:32.207Z,7.12
2023-04-07T18:41:35.017Z,7.14
2023-04-07T18:44:37.600Z,7.08
2023-04-07T18:47:40.107Z,7.14
2023-04-07T18:50:42.842Z,7.16
2023-04-07T18:53:45.486Z,7.10
2023-04-07T18:56:48.663Z,7.13
2023-04-07T18:59:52.968Z,7.14
2023-04-07T19:02:55.632Z,7.16
2023-04-07T19:05:59.030Z,6.98
2023-04-07T19:09:01.472Z,6.94
2023-04-07T19:12:04.379Z,7.04
2023-04-07T19:15:07.539Z,7.02
2023-04-07T19:18:09.917Z,7.01
2023-04-07T19:21:13.660Z,7.05
2023-04-07T19:24:16.121Z,6.95
2023-04-07T19:27:18.483Z,7.13
2023-04-07T19:30:21.044Z,7.16
2023-04-07T19:33:23.420Z,7.11
2023-04-07T19:36:26.601Z,7.08
2023-04-07T19:39:29.241Z,7.07
2023-04-07T19:42:32.176Z,7.17
2023-04-07T19:45:34.679Z,7.13
2023-04-07T19:48:37.247Z,6.92
2023-04-07T19:51:40.025Z,6.95
2023-04-07T19:54:42.840Z,7.01
2023-04-07T19:57:45.504Z,7.04
2023-04-07T20:00:50.985Z,7.01
2023-04-07T20:03:53.708Z,7.04
2023-04-07T20:06:56.314Z,7.05
2023-04-07T20:09:59.060Z,7.00
2023-04-07T20:13:01.400Z,6.89
2023-04-07T20:16:04.127Z,6.97
2023-04-07T20:19:06.440Z,6.94
2023-04-07T20:22:09.322Z,7.03
2023-04-07T20:25:11.817Z,6.95
2023-04-07T20:28:14.355Z,6.92
2023-04-07T20:31:16.845Z,7.12
2023-04-07T20:34:19.266Z,7.00
2023-04-07T20:37:22.776Z,7.05
2023-04-07T20:40:25.092Z,7.12
2023-04-07T20:43:28.164Z,7.07
2023-04-07T20:46:30.981Z,7.12
2023-04-07T20:49:33.949Z,7.17
2023-04-07T20:52:40.141Z,7.17
2023-04-07T20:55:42.609Z,7.27
2023-04-07T20:58:44.920Z,7.13
2023-04-07T21:01:47.414Z,7.15
2023-04-07T21:04:49.793Z,6.99
2023-04-07T21:07:52.047Z,7.04
2023-04-07T21:10:54.735Z,7.02
2023-04-07T21:13:57.408Z,7.00
2023-04-07T21:17:00.153Z,6.94
2023-04-07T21:20:03.135Z,6.86
2023-04-07T21:23:07.807Z,6.88
2023-04-07T21:26:10.388Z,7.05
2023-04-07T21:29:12.770Z,7.04
2023-04-07T21:32:15.534Z,7.10
2023-04-07T21:35:19.838Z,6.94
2023-04-07T21:38:22.487Z,7.11
2023-04-07T21:41:24.846Z,6.95
2023-04-07T21:44:27.500Z,7.16
2023-04-07T21:47:29.926Z,7.08
2023-04-07T21:50:32.392Z,7.07
2023-04-07T21:53:37.834Z,6.76
2023-04-07T21:56:40.594Z,7.10
2023-04-07T21:59:43.046Z,7.13
2023-04-07T22:02:45.905Z,6.93
2023-04-07T22:05:48.549Z,7.06
2023-04-07T22:09:00.632Z,7.09
2023-04-07T22:12:03.950Z,7.01
2023-04-07T22:15:07.165Z,6.93
2023-04-07T22:18:10.015Z,6.99
2023-04-07T22:21:12.923Z,6.82
2023-04-07T22:24:15.727Z,6.77
2023-04-07T22:27:18.121Z,6.81
2023-04-07T22:30:21.543Z,6.58
2023-04-07T22:33:23.917Z,6.58
2023-04-07T22:36:26.970Z,6.52
2023-04-07T22:39:29.779Z,6.49
2023-04-07T22:42:32.458Z,6.44
2023-04-07T22:45:35.720Z,6.43
2023-04-07T22:48:38.108Z,6.37
2023-04-07T22:51:41.219Z,6.15
2023-04-07T22:54:43.872Z,6.07
2023-04-07T22:57:46.527Z,6.02
2023-04-07T23:00:48.964Z,5.94
2023-04-07T23:03:51.522Z,6.15
2023-04-07T23:06:54.040Z,6.02
2023-04-07T23:09:56.770Z,6.14
2023-04-07T23:12:59.214Z,6.09
2023-04-07T23:16:03.980Z,6.00
2023-04-07T23:19:06.999Z,5.85
2023-04-07T23:22:09.558Z,5.95
2023-04-07T23:25:12.054Z,5.91
2023-04-07T23:28:14.717Z,5.87
2023-04-07T23:31:17.596Z,5.85
2023-04-07T23:34:19.962Z,5.70
2023-04-07T23:37:22.617Z,5.66
2023-04-07T23:40:25.033Z,5.61
2023-04-07T23:43:27.493Z,5.59
2023-04-07T23:46:30.077Z,5.54
2023-04-07T23:49:32.894Z,5.45
2023-04-07T23:52:35.863Z,5.31
2023-04-07T23:55:38.250Z,5.36
2023-04-07T23:58:40.976Z,5.03
